createdAt,value
2023-04-11T00:04:08.089Z,27.90
2023-04-11T00:06:36.509Z,26.90
2023-04-11T00:09:04.785Z,25.30
2023-04-11T00:11:33.187Z,27.00
2023-04-11T00:14:01.345Z,25.80
2023-04-11T00:16:29.562Z,30.00
2023-04-11T00:18:58.065Z,28.00
2023-04-11T00:21:26.381Z,27.20
2023-04-11T00:23:55.566Z,28.80
2023-04-11T00:26:23.642Z,25.50
2023-04-11T00:28:51.940Z,28.40
2023-04-11T00:31:20.119Z,32.50
2023-04-11T00:33:48.266Z,28.40
2023-04-11T00:36:16.516Z,25.90
2023-04-11T00:38:44.841Z,33.50
2023-04-11T00:41:12.877Z,32.00
2023-04-11T00:43:40.940Z,36.70
2023-04-11T00:46:09.646Z,31.80
2023-04-11T00:48:37.933Z,28.80
2023-04-11T00:51:06.348Z,25.80
2023-04-11T00:53:38.370Z,32.80
2023-04-11T00:56:07.160Z,27.70
2023-04-11T00:58:37.729Z,30.40
2023-04-11T01:01:09.617Z,26.00
2023-04-11T01:03:41.455Z,23.80
2023-04-11T01:06:12.717Z,24.90
2023-04-11T01:08:43.568Z,25.50
2023-04-11T01:11:12.851Z,27.60
2023-04-11T01:13:42.729Z,23.90
2023-04-11T01:16:11.519Z,27.20
2023-04-11T01:18:39.577Z,25.70
2023-04-11T01:21:09.787Z,34.70
2023-04-11T01:23:38.296Z,27.90
2023-04-11T01:26:06.859Z,36.10
2023-04-11T01:28:35.040Z,32.20
2023-04-11T01:31:03.753Z,30.80
2023-04-11T01:33:31.993Z,30.60
2023-04-11T01:36:00.778Z,28.80
2023-04-11T01:38:29.074Z,37.90
2023-04-11T01:40:58.368Z,27.40
2023-04-11T01:43:26.641Z,27.40
2023-04-11T01:45:54.818Z,26.50
2023-04-11T01:48:22.972Z,23.90
2023-04-11T01:50:52.190Z,29.70
2023-04-11T01:53:20.270Z,26.90
2023-04-11T01:55:48.431Z,24.90
2023-04-11T01:58:16.496Z,26.90
2023-04-11T02:00:44.596Z,23.10
2023-04-11T02:03:13.176Z,39.70
2023-04-11T02:05:43.830Z,28.00
2023-04-11T02:08:12.373Z,28.40
2023-04-11T02:10:40.563Z,26.10
2023-04-11T02:13:08.914Z,27.10
2023-04-11T02:15:36.920Z,25.00
2023-04-11T02:18:05.731Z,23.10
2023-04-11T02:20:38.085Z,25.70
2023-04-11T02:23:07.743Z,27.40
2023-04-11T02:25:35.937Z,27.30
2023-04-11T02:28:05.625Z,26.40
2023-04-11T02:30:35.879Z,28.00
2023-04-11T02:33:04.783Z,30.60
2023-04-11T02:35:33.062Z,30.20
2023-04-11T02:38:01.833Z,28.20
2023-04-11T02:40:31.141Z,27.50
2023-04-11T02:43:01.235Z,29.80
2023-04-11T02:45:29.970Z,27.50
2023-04-11T02:47:58.965Z,27.80
2023-04-11T02:50:27.509Z,24.90
2023-04-11T02:52:55.809Z,26.60
2023-04-11T02:55:27.247Z,27.30
2023-04-11T02:57:55.722Z,29.80
2023-04-11T03:00:24.946Z,30.40
2023-04-11T03:03:00.822Z,29.30
2023-04-11T03:05:29.380Z,38.10
2023-04-11T03:07:57.913Z,29.30
2023-04-11T03:10:26.957Z,31.70
2023-04-11T03:12:55.927Z,26.40
2023-04-11T03:15:24.001Z,27.90
2023-04-11T03:17:52.191Z,31.10
2023-04-11T03:20:20.665Z,34.00
2023-04-11T03:22:51.538Z,35.00
2023-04-11T03:25:20.604Z,38.00
2023-04-11T03:27:49.788Z,50.40
2023-04-11T03:30:18.169Z,48.60
2023-04-11T03:32:48.635Z,41.10
2023-04-11T03:35:18.803Z,39.90
2023-04-11T03:37:48.114Z,39.50
2023-04-11T03:40:18.890Z,42.30
2023-04-11T03:42:51.434Z,36.10
2023-04-11T03:45:22.821Z,35.80
2023-04-11T03:47:51.681Z,37.40
2023-04-11T03:50:21.872Z,34.40
2023-04-11T03:52:51.107Z,37.20
2023-04-11T03:55:20.549Z,31.10
2023-04-11T03:57:48.876Z,33.00
2023-04-11T04:00:20.134Z,31.70
2023-04-11T04:02:55.879Z,27.50
2023-04-11T04:05:24.752Z,26.70
2023-04-11T04:07:55.663Z,26.60
2023-04-11T04:10:28.993Z,32.50
2023-04-11T04:12:57.064Z,26.50
2023-04-11T04:15:29.128Z,25.60
2023-04-11T04:17:57.326Z,32.40
2023-04-11T04:20:46.990Z,22.00
2023-04-11T04:23:18.370Z,23.00
2023-04-11T04:26:13.355Z,26.10
2023-04-11T04:28:46.147Z,22.40
2023-04-11T04:31:15.653Z,32.20
2023-04-11T04:33:43.777Z,36.10
2023-04-11T04:36:19.965Z,27.10
2023-04-11T04:38:49.049Z,26.80
2023-04-11T04:41:17.437Z,31.70
2023-04-11T04:43:54.988Z,36.60
2023-04-11T04:46:36.798Z,29.20
2023-04-11T04:49:06.126Z,39.60
2023-04-11T04:51:37.064Z,36.70
2023-04-11T04:54:06.676Z,38.80
2023-04-11T04:56:34.944Z,46.10
2023-04-11T04:59:03.332Z,43.00
2023-04-11T05:01:33.058Z,43.60
2023-04-11T05:04:03.107Z,42.40
2023-04-11T05:07:06.565Z,32.10
2023-04-11T05:09:35.971Z,33.80
2023-04-11T05:12:16.282Z,30.40
2023-04-11T05:14:44.593Z,28.70
2023-04-11T05:17:13.795Z,29.70
2023-04-11T05:19:42.280Z,33.60
2023-04-11T05:22:11.961Z,33.50
2023-04-11T05:24:44.044Z,30.50
2023-04-11T05:27:13.668Z,27.10
2023-04-11T05:29:42.439Z,32.10
2023-04-11T05:32:11.275Z,32.00
2023-04-11T05:34:52.634Z,26.20
2023-04-11T05:37:25.089Z,32.10
2023-04-11T05:39:53.223Z,33.50
2023-04-11T05:42:22.977Z,26.00
2023-04-11T05:44:51.047Z,26.10
2023-04-11T05:47:19.118Z,25.60
2023-04-11T05:49:48.774Z,26.40
2023-04-11T05:52:16.960Z,22.30
2023-04-11T05:54:45.588Z,20.00
2023-04-11T05:57:13.663Z,20.60
2023-04-11T05:59:41.947Z,21.00
2023-04-11T06:02:10.211Z,25.10
2023-04-11T06:04:38.773Z,24.70
2023-04-11T06:07:08.531Z,25.70
2023-04-11T06:09:36.780Z,27.00
2023-04-11T06:12:05.374Z,24.60
2023-04-11T06:14:33.439Z,29.50
2023-04-11T06:17:01.518Z,23.20
2023-04-11T06:19:29.584Z,18.50
2023-04-11T06:21:57.756Z,18.60
2023-04-11T06:24:39.778Z,21.80
2023-04-11T06:27:11.618Z,19.80
2023-04-11T06:29:41.428Z,19.40
2023-04-11T06:32:10.949Z,18.30
2023-04-11T06:34:39.771Z,19.50
2023-04-11T06:37:08.576Z,29.30
2023-04-11T06:39:37.408Z,21.10
2023-04-11T06:42:05.682Z,24.60
2023-04-11T06:44:35.055Z,25.30
2023-04-11T06:47:04.132Z,21.80
2023-04-11T06:49:33.075Z,21.60
2023-04-11T06:52:01.153Z,20.90
2023-04-11T06:54:29.627Z,19.90
2023-04-11T06:56:57.902Z,18.90
2023-04-11T06:59:27.434Z,18.30
2023-04-11T07:01:55.816Z,21.90
2023-04-11T07:04:24.136Z,19.80
2023-04-11T07:06:53.194Z,16.80
2023-04-11T07:09:21.442Z,17.90
2023-04-11T07:11:50.132Z,19.90
2023-04-11T07:14:19.181Z,23.40
2023-04-11T07:16:47.400Z,21.30
2023-04-11T07:19:15.874Z,21.40
2023-04-11T07:21:44.165Z,21.50
2023-04-11T07:24:13.344Z,20.00
2023-04-11T07:26:42.509Z,17.50
2023-04-11T07:29:13.136Z,20.30
2023-04-11T07:31:45.162Z,18.00
2023-04-11T07:34:13.431Z,21.70
2023-04-11T07:36:42.211Z,18.30
2023-04-11T07:39:12.363Z,18.80
2023-04-11T07:41:41.327Z,20.00
2023-04-11T07:44:09.908Z,21.30
2023-04-11T07:46:38.202Z,17.20
2023-04-11T07:49:06.660Z,13.80
2023-04-11T07:51:34.716Z,15.20
2023-04-11T07:54:03.216Z,15.40
2023-04-11T07:56:31.279Z,20.70
2023-04-11T07:58:59.963Z,17.70
2023-04-11T08:01:28.250Z,12.60
2023-04-11T08:03:57.506Z,10.90
2023-04-11T08:06:26.745Z,9.80
2023-04-11T08:08:54.716Z,16.20
2023-04-11T08:11:22.784Z,14.40
2023-04-11T08:13:50.975Z,10.90
2023-04-11T08:16:19.266Z,11.20
2023-04-11T08:18:48.234Z,12.00
2023-04-11T08:21:16.409Z,11.50
2023-04-11T08:23:44.485Z,11.10
2023-04-11T08:26:13.369Z,10.20
2023-04-11T08:28:42.948Z,15.20
2023-04-11T08:31:13.571Z,12.00
2023-04-11T08:33:42.005Z,11.80
2023-04-11T08:36:11.443Z,11.90
2023-04-11T08:38:41.193Z,11.90
2023-04-11T08:41:09.696Z,10.70
2023-04-11T08:43:40.272Z,9.50
2023-04-11T08:46:08.876Z,14.30
2023-04-11T08:48:38.509Z,13.40
2023-04-11T08:51:07.396Z,13.80
2023-04-11T08:53:36.919Z,12.70
2023-04-11T08:56:05.280Z,10.30
2023-04-11T08:58:33.581Z,12.30
2023-04-11T09:01:29.090Z,12.80
2023-04-11T09:03:58.374Z,10.10
2023-04-11T09:06:32.754Z,13.50
2023-04-11T09:09:05.378Z,12.90
2023-04-11T09:11:55.576Z,7.90
2023-04-11T09:14:27.178Z,7.80
2023-04-11T09:16:57.646Z,9.50
2023-04-11T09:19:28.134Z,8.50
2023-04-11T09:22:01.572Z,7.40
2023-04-11T09:24:30.371Z,5.90
2023-04-11T09:27:10.016Z,6.60
2023-04-11T09:29:39.737Z,7.70
2023-04-11T09:32:08.203Z,7.50
2023-04-11T09:34:42.386Z,7.30
2023-04-11T09:37:11.004Z,13.70
2023-04-11T09:39:39.275Z,8.00
2023-04-11T09:42:25.422Z,9.40
2023-04-11T09:44:53.386Z,13.30
2023-04-11T09:47:21.661Z,14.80
2023-04-11T09:49:50.406Z,6.40
2023-04-11T09:52:19.297Z,7.60
2023-04-11T09:54:49.583Z,10.40
2023-04-11T09:57:19.744Z,9.00
2023-04-11T09:59:49.246Z,10.70
2023-04-11T10:02:17.300Z,6.80
2023-04-11T10:04:45.670Z,11.40
2023-04-11T10:07:17.079Z,7.10
2023-04-11T10:09:46.028Z,8.60
2023-04-11T10:12:33.671Z,8.30
2023-04-11T10:15:10.885Z,10.50
2023-04-11T10:17:40.893Z,12.30
2023-04-11T10:20:49.928Z,7.80
2023-04-11T10:23:18.279Z,6.90
2023-04-11T10:25:51.000Z,9.80
2023-04-11T10:28:51.598Z,7.30
2023-04-11T10:31:19.682Z,7.20
2023-04-11T10:34:14.553Z,8.30
2023-04-11T10:37:06.508Z,9.20
2023-04-11T10:39:53.624Z,9.80
2023-04-11T10:42:41.980Z,6.10
2023-04-11T10:45:25.175Z,9.10
2023-04-11T10:47:56.471Z,18.00
2023-04-11T10:50:28.400Z,7.10
2023-04-11T10:52:58.812Z,7.90
2023-04-11T10:55:28.920Z,9.70
2023-04-11T10:58:08.300Z,6.30
2023-04-11T11:00:52.473Z,6.20
2023-04-11T11:03:26.611Z,8.80
2023-04-11T11:06:06.347Z,10.50
2023-04-11T11:08:38.067Z,7.30
2023-04-11T11:11:08.217Z,11.10
2023-04-11T11:13:43.423Z,12.80
2023-04-11T11:16:17.132Z,10.30
2023-04-11T11:18:48.405Z,8.80
2023-04-11T11:21:26.802Z,8.40
2023-04-11T11:24:03.602Z,8.40
2023-04-11T11:26:44.621Z,12.20
2023-04-11T11:29:13.508Z,8.90
2023-04-11T11:31:46.516Z,6.50
2023-04-11T11:34:30.980Z,7.70
2023-04-11T11:37:01.601Z,15.40
2023-04-11T11:39:30.987Z,9.50
2023-04-11T11:41:59.766Z,7.50
2023-04-11T11:44:30.049Z,8.00
2023-04-11T11:47:16.512Z,12.50
2023-04-11T11:49:52.987Z,8.30
2023-04-11T11:52:41.370Z,13.40
2023-04-11T11:55:33.148Z,12.90
2023-04-11T11:58:02.989Z,11.00
2023-04-11T12:00:36.763Z,13.20
2023-04-11T12:03:06.848Z,8.60
2023-04-11T12:05:35.880Z,8.60
2023-04-11T12:08:07.529Z,8.80
2023-04-11T12:10:38.649Z,8.00
2023-04-11T12:13:25.713Z,6.40
2023-04-11T12:16:00.708Z,6.00
2023-04-11T12:18:28.907Z,10.00
2023-04-11T12:20:56.986Z,11.60
2023-04-11T12:23:25.566Z,7.70
2023-04-11T12:25:53.743Z,9.90
2023-04-11T12:28:22.146Z,7.80
2023-04-11T12:30:50.316Z,10.40
2023-04-11T12:33:18.456Z,8.60
2023-04-11T12:35:46.946Z,12.00
2023-04-11T12:38:17.639Z,11.00
2023-04-11T12:40:47.097Z,9.90
2023-04-11T12:43:15.563Z,7.70
2023-04-11T12:45:43.637Z,7.00
2023-04-11T12:48:12.012Z,7.00
2023-04-11T12:50:40.272Z,7.40
2023-04-11T12:53:08.570Z,6.10
2023-04-11T12:55:37.118Z,9.90
2023-04-11T12:58:05.188Z,8.20
2023-04-11T13:00:33.304Z,9.20
2023-04-11T13:03:01.996Z,7.40
2023-04-11T13:05:30.559Z,6.90
2023-04-11T13:07:58.735Z,6.50
2023-04-11T13:10:26.908Z,7.40
2023-04-11T13:12:58.572Z,7.80
2023-04-11T13:15:27.354Z,7.00
2023-04-11T13:17:55.378Z,12.80
2023-04-11T13:20:23.513Z,7.80
2023-04-11T13:22:52.197Z,6.60
2023-04-11T13:25:20.467Z,9.80
2023-04-11T13:27:48.558Z,8.50
2023-04-11T13:30:16.634Z,5.60
2023-04-11T13:32:44.924Z,7.10
2023-04-11T13:35:13.154Z,6.20
2023-04-11T13:37:42.057Z,6.60
2023-04-11T13:40:12.436Z,5.40
2023-04-11T13:42:40.563Z,6.60
2023-04-11T13:45:09.755Z,6.10
2023-04-11T13:47:38.888Z,6.20
2023-04-11T13:50:08.999Z,8.70
2023-04-11T13:52:37.894Z,6.60
2023-04-11T13:55:07.079Z,5.70
2023-04-11T13:57:35.242Z,6.50
2023-04-11T14:00:09.896Z,5.60
2023-04-11T14:02:40.208Z,4.50
2023-04-11T14:05:11.577Z,7.60
2023-04-11T14:07:41.240Z,7.30
2023-04-11T14:10:09.953Z,9.30
2023-04-11T14:12:38.355Z,7.40
2023-04-11T14:15:08.046Z,13.10
2023-04-11T14:17:36.556Z,14.80
2023-04-11T14:20:07.047Z,11.20
2023-04-11T14:22:36.112Z,7.30
2023-04-11T14:25:05.731Z,6.90
2023-04-11T14:27:33.896Z,7.90
2023-04-11T14:30:02.075Z,11.00
2023-04-11T14:32:30.154Z,7.10
2023-04-11T14:34:59.468Z,10.70
2023-04-11T14:37:28.128Z,6.90
2023-04-11T14:39:56.322Z,6.00
2023-04-11T14:42:24.584Z,7.70
2023-04-11T14:44:53.575Z,6.40
2023-04-11T14:47:23.105Z,7.80
2023-04-11T14:49:51.658Z,8.90
2023-04-11T14:52:19.832Z,6.10
2023-04-11T14:54:48.215Z,8.30
2023-04-11T14:57:16.595Z,5.40
2023-04-11T14:59:44.800Z,8.00
2023-04-11T15:02:13.632Z,5.70
2023-04-11T15:04:41.857Z,9.10
2023-04-11T15:07:09.898Z,7.20
2023-04-11T15:09:38.087Z,7.70
2023-04-11T15:12:06.467Z,7.90
2023-04-11T15:14:34.519Z,9.30
2023-04-11T15:17:02.701Z,6.30
2023-04-11T15:19:30.773Z,10.20
2023-04-11T15:21:59.146Z,10.30
2023-04-11T15:24:27.318Z,10.60
2023-04-11T15:26:56.895Z,16.70
2023-04-11T15:29:25.730Z,7.80
2023-04-11T15:31:53.788Z,22.70
2023-04-11T15:34:23.810Z,9.90
2023-04-11T15:36:51.873Z,9.50
2023-04-11T15:39:20.049Z,27.90
2023-04-11T15:41:48.128Z,5.60
2023-04-11T15:44:16.553Z,6.60
2023-04-11T15:46:46.976Z,9.90
2023-04-11T15:49:16.830Z,8.80
2023-04-11T15:51:46.569Z,8.00
2023-04-11T15:54:14.527Z,8.30
2023-04-11T15:56:42.666Z,10.00
2023-04-11T15:59:13.023Z,8.50
2023-04-11T16:01:41.796Z,10.80
2023-04-11T16:04:11.522Z,10.60
2023-04-11T16:06:39.693Z,7.20
2023-04-11T16:09:08.813Z,7.50
2023-04-11T16:11:38.812Z,8.40
2023-04-11T16:14:07.190Z,10.30
2023-04-11T16:16:35.615Z,9.00
2023-04-11T16:19:04.154Z,9.20
2023-04-11T16:21:32.528Z,13.10
2023-04-11T16:24:00.969Z,11.30
2023-04-11T16:26:29.183Z,8.40
2023-04-11T16:28:57.259Z,10.50
2023-04-11T16:31:25.495Z,11.30
2023-04-11T16:33:55.398Z,11.70
2023-04-11T16:36:23.970Z,10.90
2023-04-11T16:38:52.266Z,12.90
2023-04-11T16:41:21.009Z,8.90
2023-04-11T16:43:49.177Z,9.10
2023-04-11T16:46:17.406Z,15.50
2023-04-11T16:48:45.624Z,12.40
2023-04-11T16:51:13.902Z,7.60
2023-04-11T16:53:42.070Z,7.00
2023-04-11T16:56:10.767Z,10.70
2023-04-11T16:58:38.843Z,12.50
2023-04-11T17:01:07.054Z,9.10
2023-04-11T17:03:35.405Z,10.10
2023-04-11T17:06:04.068Z,10.40
2023-04-11T17:08:32.315Z,8.60
2023-04-11T17:11:09.108Z,12.60
2023-04-11T17:13:38.532Z,9.40
2023-04-11T17:16:08.199Z,12.50
2023-04-11T17:18:36.462Z,10.70
2023-04-11T17:21:05.406Z,11.50
2023-04-11T17:23:42.529Z,15.70
2023-04-11T17:26:12.476Z,13.00
2023-04-11T17:28:41.105Z,10.90
2023-04-11T17:31:20.135Z,13.50
2023-04-11T17:33:48.495Z,13.10
2023-04-11T17:36:16.782Z,10.20
2023-04-11T17:38:45.862Z,12.80
2023-04-11T17:41:15.692Z,9.90
2023-04-11T17:43:44.271Z,9.40
2023-04-11T17:46:13.123Z,20.40
2023-04-11T17:48:42.282Z,15.60
2023-04-11T17:51:10.833Z,12.80
2023-04-11T17:53:38.999Z,11.20
2023-04-11T17:56:07.899Z,11.60
2023-04-11T17:58:36.204Z,12.80
2023-04-11T18:01:09.267Z,14.40
2023-04-11T18:03:38.713Z,13.80
2023-04-11T18:06:07.835Z,11.20
2023-04-11T18:08:49.951Z,14.40
2023-04-11T18:11:19.679Z,11.80
2023-04-11T18:13:50.025Z,14.20
2023-04-11T18:16:19.565Z,13.80
2023-04-11T18:18:48.436Z,16.30
2023-04-11T18:21:19.555Z,15.60
2023-04-11T18:23:47.711Z,16.00
2023-04-11T18:26:16.202Z,14.70
2023-04-11T18:28:44.585Z,10.50
2023-04-11T18:31:13.614Z,15.70
2023-04-11T18:33:45.609Z,11.30
2023-04-11T18:36:15.281Z,12.30
2023-04-11T18:38:44.342Z,15.80
2023-04-11T18:41:12.636Z,16.20
2023-04-11T18:43:41.597Z,13.40
2023-04-11T18:46:09.989Z,13.70
2023-04-11T18:48:38.590Z,11.80
2023-04-11T18:51:09.711Z,11.20
2023-04-11T18:53:38.190Z,11.20
2023-04-11T18:56:09.136Z,12.20
2023-04-11T18:58:45.461Z,10.80
2023-04-11T19:01:17.272Z,10.70
2023-04-11T19:03:46.715Z,12.60
2023-04-11T19:06:15.341Z,9.40
2023-04-11T19:08:43.447Z,9.80
2023-04-11T19:11:11.607Z,16.40
2023-04-11T19:13:39.714Z,13.10
2023-04-11T19:16:08.306Z,9.90
2023-04-11T19:18:37.914Z,14.60
2023-04-11T19:21:06.127Z,14.90
2023-04-11T19:23:34.413Z,15.30
2023-04-11T19:26:02.917Z,12.70
2023-04-11T19:28:32.281Z,18.60
2023-04-11T19:31:03.124Z,20.70
2023-04-11T19:33:31.405Z,19.20
2023-04-11T19:35:59.623Z,19.90
2023-04-11T19:38:27.955Z,16.60
2023-04-11T19:40:56.147Z,14.80
2023-04-11T19:43:24.301Z,12.30
2023-04-11T19:45:52.851Z,12.40
2023-04-11T19:48:21.230Z,12.70
2023-04-11T19:50:51.965Z,11.30
2023-04-11T19:53:21.071Z,16.00
2023-04-11T19:55:53.415Z,12.40
2023-04-11T19:58:22.358Z,11.70
2023-04-11T20:00:51.068Z,13.00
2023-04-11T20:03:22.878Z,13.50
2023-04-11T20:05:51.295Z,15.70
2023-04-11T20:08:21.181Z,10.10
2023-04-11T20:10:50.004Z,10.50
2023-04-11T20:13:18.063Z,11.00
2023-04-11T20:15:46.340Z,14.30
2023-04-11T20:18:15.029Z,14.30
2023-04-11T20:20:43.611Z,11.60
2023-04-11T20:23:15.970Z,14.40
2023-04-11T20:25:44.365Z,11.20
2023-04-11T20:28:12.384Z,10.10
2023-04-11T20:30:41.141Z,12.70
2023-04-11T20:33:09.288Z,12.00
2023-04-11T20:35:37.459Z,15.60
2023-04-11T20:38:05.747Z,15.20
2023-04-11T20:40:33.814Z,11.50
2023-04-11T20:43:02.505Z,13.90
2023-04-11T20:45:33.050Z,13.30
2023-04-11T20:48:02.213Z,10.50
2023-04-11T20:50:33.546Z,13.30
2023-04-11T20:53:02.051Z,10.20
2023-04-11T20:55:30.755Z,11.20
2023-04-11T20:57:59.085Z,11.80
2023-04-11T21:00:27.485Z,10.80
2023-04-11T21:02:55.891Z,10.80
2023-04-11T21:05:25.091Z,11.80
2023-04-11T21:07:58.268Z,8.00
2023-04-11T21:10:26.445Z,9.90
2023-04-11T21:12:54.684Z,8.50
2023-04-11T21:15:23.197Z,7.10
2023-04-11T21:17:52.335Z,6.80
2023-04-11T21:20:22.299Z,6.30
2023-04-11T21:22:55.517Z,9.00
2023-04-11T21:25:24.355Z,6.20
2023-04-11T21:27:52.624Z,6.40
2023-04-11T21:30:20.845Z,6.80
2023-04-11T21:32:48.948Z,5.40
2023-04-11T21:35:17.092Z,5.40
2023-04-11T21:37:47.074Z,5.90
2023-04-11T21:40:17.038Z,6.40
2023-04-11T21:42:45.102Z,5.60
2023-04-11T21:45:13.478Z,5.10
2023-04-11T21:47:41.589Z,6.70
2023-04-11T21:50:10.650Z,4.70
2023-04-11T21:52:38.819Z,4.30
2023-04-11T21:55:08.986Z,4.60
2023-04-11T21:57:37.634Z,5.80
2023-04-11T22:00:08.564Z,5.00
2023-04-11T22:02:45.927Z,4.20
2023-04-11T22:05:14.405Z,3.30
2023-04-11T22:07:48.590Z,4.70
2023-04-11T22:10:23.671Z,6.70
2023-04-11T22:12:54.715Z,4.60
2023-04-11T22:15:24.467Z,5.40
2023-04-11T22:17:54.795Z,5.60
2023-04-11T22:20:23.138Z,7.80
2023-04-11T22:22:51.222Z,8.90
2023-04-11T22:25:22.758Z,7.20
2023-04-11T22:27:54.584Z,6.00
2023-04-11T22:30:24.607Z,6.80
2023-04-11T22:32:54.463Z,6.10
2023-04-11T22:35:25.058Z,6.20
2023-04-11T22:37:57.316Z,7.00
2023-04-11T22:40:25.534Z,6.60
2023-04-11T22:42:54.133Z,6.60
2023-04-11T22:45:23.693Z,6.40
2023-04-11T22:47:55.752Z,7.30
2023-04-11T22:50:23.974Z,7.70
2023-04-11T22:52:51.929Z,8.00
2023-04-11T22:55:21.395Z,6.30
2023-04-11T22:57:49.739Z,7.50
2023-04-11T23:00:19.268Z,8.50
2023-04-11T23:02:47.611Z,8.00
2023-04-11T23:05:17.006Z,8.50
2023-04-11T23:07:45.300Z,6.70
2023-04-11T23:10:17.345Z,6.20
2023-04-11T23:12:47.506Z,11.10
2023-04-11T23:15:15.494Z,6.20
2023-04-11T23:17:43.875Z,7.00
2023-04-11T23:20:13.794Z,8.50
2023-04-11T23:22:43.897Z,8.10
2023-04-11T23:25:12.728Z,7.90
2023-04-11T23:27:44.798Z,8.60
2023-04-11T23:30:17.748Z,8.30
2023-04-11T23:32:46.022Z,7.40
2023-04-11T23:35:17.080Z,7.70
2023-04-11T23:37:45.818Z,8.20
2023-04-11T23:40:14.247Z,6.60
2023-04-11T23:42:42.545Z,8.60
2023-04-11T23:45:11.728Z,7.60
2023-04-11T23:47:39.831Z,9.60
2023-04-11T23:50:08.705Z,8.00
2023-04-11T23:52:36.780Z,7.20
2023-04-11T23:55:05.569Z,7.70
2023-04-11T23:57:34.046Z,6.80
